createdAt,value
2019-05-09T00:01:15.859Z,47.53
2019-05-09T00:03:45.933Z,47.64
2019-05-09T00:06:16.030Z,47.79
2019-05-09T00:08:46.096Z,47.67
2019-05-09T00:11:16.201Z,47.73
2019-05-09T00:13:46.265Z,47.81
2019-05-09T00:16:16.365Z,47.93
2019-05-09T00:18:46.449Z,47.72
2019-05-09T00:21:21.304Z,47.82
2019-05-09T00:23:51.377Z,47.72
2019-05-09T00:26:23.564Z,47.82
2019-05-09T00:28:54.852Z,47.70
2019-05-09T00:31:29.709Z,47.81
2019-05-09T00:34:03.940Z,47.89
2019-05-09T00:36:33.501Z,47.74
2019-05-09T00:39:04.200Z,47.75
2019-05-09T00:41:34.551Z,48.04
2019-05-09T00:44:13.856Z,47.92
2019-05-09T00:46:54.591Z,47.76
2019-05-09T00:49:26.375Z,47.92
2019-05-09T00:51:56.420Z,47.95
2019-05-09T00:54:26.504Z,47.88
2019-05-09T00:56:56.560Z,47.92
2019-05-09T00:59:26.665Z,47.83
2019-05-09T01:01:56.717Z,47.91
2019-05-09T01:04:26.820Z,47.90
2019-05-09T01:06:56.869Z,48.02
2019-05-09T01:09:27.968Z,47.97
2019-05-09T01:11:58.213Z,48.04
2019-05-09T01:14:29.658Z,48.25
2019-05-09T01:17:00.325Z,48.27
2019-05-09T01:19:33.725Z,48.36
2019-05-09T01:22:04.949Z,48.55
2019-05-09T01:24:35.067Z,48.67
2019-05-09T01:27:05.145Z,48.78
2019-05-09T01:29:35.247Z,48.63
2019-05-09T01:32:14.396Z,48.78
2019-05-09T01:34:44.673Z,48.89
2019-05-09T01:37:14.745Z,49.10
2019-05-09T01:39:44.778Z,48.91
2019-05-09T01:42:14.846Z,49.20
2019-05-09T01:44:44.896Z,49.23
2019-05-09T01:47:14.977Z,49.36
2019-05-09T01:49:45.028Z,49.39
2019-05-09T01:52:15.117Z,49.42
2019-05-09T01:54:47.323Z,49.41
2019-05-09T01:57:17.435Z,49.52
2019-05-09T01:59:47.481Z,49.72
2019-05-09T02:02:17.571Z,49.73
2019-05-09T02:04:47.614Z,49.86
2019-05-09T02:07:17.709Z,49.95
2019-05-09T02:09:47.741Z,49.95
2019-05-09T02:12:17.848Z,50.29
2019-05-09T02:14:49.468Z,50.21
2019-05-09T02:17:37.275Z,50.33
2019-05-09T02:20:07.813Z,50.33
2019-05-09T02:22:37.919Z,50.21
2019-05-09T02:25:09.822Z,50.41
2019-05-09T02:27:39.927Z,50.41
2019-05-09T02:30:15.277Z,50.40
2019-05-09T02:32:44.999Z,50.52
2019-05-09T02:35:15.713Z,50.53
2019-05-09T02:37:49.518Z,50.50
2019-05-09T02:40:18.733Z,50.72
2019-05-09T02:42:49.425Z,50.60
2019-05-09T02:45:20.229Z,50.80
2019-05-09T02:47:50.335Z,50.55
2019-05-09T02:50:20.425Z,50.76
2019-05-09T02:52:50.535Z,50.61
2019-05-09T02:55:20.680Z,50.89
2019-05-09T02:57:52.367Z,51.07
2019-05-09T03:00:24.794Z,50.97
2019-05-09T03:03:02.396Z,51.28
2019-05-09T03:05:32.468Z,51.06
2019-05-09T03:08:02.579Z,51.28
2019-05-09T03:10:32.645Z,51.26
2019-05-09T03:13:02.757Z,51.34
2019-05-09T03:15:34.610Z,51.39
2019-05-09T03:18:04.713Z,51.42
2019-05-09T03:20:39.437Z,51.21
2019-05-09T03:23:09.754Z,51.35
2019-05-09T03:25:40.778Z,51.31
2019-05-09T03:28:28.213Z,51.30
2019-05-09T03:30:59.392Z,51.24
2019-05-09T03:33:35.285Z,51.26
2019-05-09T03:36:01.462Z,51.44
2019-05-09T03:38:31.580Z,51.41
2019-05-09T03:41:01.671Z,51.56
2019-05-09T03:43:31.790Z,51.37
2019-05-09T03:46:03.430Z,51.60
2019-05-09T03:48:36.883Z,51.47
2019-05-09T03:51:08.129Z,51.49
2019-05-09T03:53:38.374Z,51.62
2019-05-09T03:56:10.008Z,51.76
2019-05-09T03:58:40.099Z,51.94
2019-05-09T04:01:10.785Z,52.14
2019-05-09T04:03:41.259Z,52.05
2019-05-09T04:06:11.329Z,52.16
2019-05-09T04:08:41.422Z,52.54
2019-05-09T04:11:11.509Z,52.17
2019-05-09T04:13:43.177Z,52.13
2019-05-09T04:16:13.267Z,52.16
2019-05-09T04:18:43.387Z,52.42
2019-05-09T04:21:13.468Z,52.43
2019-05-09T04:23:43.565Z,52.47
2019-05-09T04:26:21.092Z,52.52
2019-05-09T04:28:51.198Z,52.80
2019-05-09T04:31:21.281Z,52.61
2019-05-09T04:33:51.331Z,52.71
2019-05-09T04:36:22.969Z,53.16
2019-05-09T04:38:53.045Z,52.86
2019-05-09T04:41:24.210Z,53.06
2019-05-09T04:43:57.361Z,53.13
2019-05-09T04:46:27.733Z,53.10
2019-05-09T04:49:00.959Z,53.44
2019-05-09T04:51:29.790Z,53.27
2019-05-09T04:54:00.870Z,53.27
2019-05-09T04:56:32.520Z,53.04
2019-05-09T04:59:02.604Z,53.37
2019-05-09T05:01:40.266Z,53.11
2019-05-09T05:04:10.347Z,53.36
2019-05-09T05:06:40.661Z,53.37
2019-05-09T05:09:10.734Z,53.42
2019-05-09T05:11:40.848Z,53.36
2019-05-09T05:14:12.492Z,53.10
2019-05-09T05:16:42.603Z,53.21
2019-05-09T05:19:12.671Z,53.56
2019-05-09T05:21:42.766Z,53.18
2019-05-09T05:24:27.747Z,53.07
2019-05-09T05:26:57.965Z,53.19
2019-05-09T05:29:28.353Z,52.78
2019-05-09T05:32:00.029Z,52.83
2019-05-09T05:34:31.683Z,52.57
2019-05-09T05:37:01.829Z,52.48
2019-05-09T05:39:31.903Z,52.44
2019-05-09T05:42:02.389Z,52.43
2019-05-09T05:44:32.468Z,52.23
2019-05-09T05:47:20.908Z,52.07
2019-05-09T05:49:50.972Z,51.88
2019-05-09T05:52:21.078Z,52.24
2019-05-09T05:54:51.157Z,51.91
2019-05-09T05:57:21.275Z,52.16
2019-05-09T05:59:51.375Z,51.66
2019-05-09T06:02:21.466Z,51.73
2019-05-09T06:04:51.551Z,52.50
2019-05-09T06:07:21.655Z,52.64
2019-05-09T06:09:51.741Z,52.50
2019-05-09T06:12:21.839Z,52.14
2019-05-09T06:14:51.928Z,52.25
2019-05-09T06:17:22.026Z,52.71
2019-05-09T06:19:52.115Z,52.68
2019-05-09T06:22:22.223Z,52.78
2019-05-09T06:24:52.307Z,52.81
2019-05-09T06:27:22.427Z,53.13
2019-05-09T06:29:52.472Z,53.33
2019-05-09T06:32:22.568Z,53.25
2019-05-09T06:34:52.612Z,53.36
2019-05-09T06:37:22.725Z,53.40
2019-05-09T06:39:52.762Z,53.81
2019-05-09T06:42:25.396Z,53.90
2019-05-09T06:45:12.621Z,54.20
2019-05-09T06:47:44.285Z,54.19
2019-05-09T06:50:15.907Z,54.13
2019-05-09T06:52:47.935Z,54.19
2019-05-09T06:55:17.741Z,54.62
2019-05-09T06:57:48.873Z,55.19
2019-05-09T07:00:37.754Z,55.45
2019-05-09T07:03:18.491Z,55.66
2019-05-09T07:05:53.196Z,56.31
2019-05-09T07:08:33.888Z,56.17
2019-05-09T07:11:03.977Z,56.61
2019-05-09T07:13:34.053Z,56.81
2019-05-09T07:16:04.119Z,57.09
2019-05-09T07:18:34.185Z,57.78
2019-05-09T07:21:04.274Z,57.77
2019-05-09T07:23:34.350Z,58.08
2019-05-09T07:26:17.478Z,58.39
2019-05-09T07:28:48.352Z,58.88
2019-05-09T07:31:37.746Z,59.49
2019-05-09T07:34:14.916Z,59.45
2019-05-09T07:36:47.466Z,60.18
2019-05-09T07:39:17.585Z,61.21
2019-05-09T07:41:48.006Z,61.93
2019-05-09T07:44:18.404Z,61.97
2019-05-09T07:47:02.095Z,62.62
2019-05-09T07:49:37.578Z,62.90
2019-05-09T07:52:10.297Z,63.34
2019-05-09T07:54:38.771Z,64.27
2019-05-09T07:57:08.956Z,67.25
2019-05-09T07:59:39.098Z,68.68
2019-05-09T08:02:09.160Z,70.57
2019-05-09T08:04:39.247Z,71.40
2019-05-09T08:07:09.319Z,72.13
2019-05-09T08:09:39.403Z,72.73
2019-05-09T08:12:09.465Z,73.76
2019-05-09T08:14:39.538Z,74.34
2019-05-09T08:17:10.109Z,75.19
2019-05-09T08:19:40.181Z,75.17
2019-05-09T08:22:10.289Z,75.18
2019-05-09T08:24:40.428Z,75.67
2019-05-09T08:27:10.466Z,75.86
2019-05-09T08:29:40.542Z,76.31
2019-05-09T08:32:10.609Z,75.85
2019-05-09T08:34:40.686Z,76.96
2019-05-09T08:37:12.667Z,76.63
2019-05-09T08:39:42.524Z,76.15
2019-05-09T08:42:12.807Z,76.42
2019-05-09T08:44:42.887Z,76.33
2019-05-09T08:47:12.982Z,76.80
2019-05-09T08:49:58.677Z,76.37
2019-05-09T08:52:28.840Z,76.71
2019-05-09T08:54:59.393Z,76.87
2019-05-09T08:57:29.482Z,77.34
2019-05-09T08:59:59.569Z,77.36
2019-05-09T09:02:29.650Z,78.03
2019-05-09T09:04:59.786Z,78.39
2019-05-09T09:07:29.994Z,78.04
2019-05-09T09:10:00.161Z,78.80
2019-05-09T09:12:34.390Z,78.79
2019-05-09T09:15:02.096Z,78.87
2019-05-09T09:17:32.277Z,79.42
2019-05-09T09:20:02.426Z,78.51
2019-05-09T09:22:32.506Z,78.17
2019-05-09T09:25:02.617Z,78.36
2019-05-09T09:27:33.590Z,78.65
2019-05-09T09:30:17.832Z,78.82
2019-05-09T09:32:38.547Z,78.94
2019-05-09T09:35:08.103Z,78.93
2019-05-09T09:37:48.508Z,79.27
2019-05-09T09:40:10.163Z,79.24
2019-05-09T09:42:41.348Z,79.56
2019-05-09T09:45:11.534Z,79.64
2019-05-09T09:47:41.608Z,79.88
2019-05-09T09:50:12.297Z,79.85
2019-05-09T09:52:42.378Z,79.56
2019-05-09T09:55:12.679Z,79.50
2019-05-09T09:57:42.768Z,79.49
2019-05-09T10:00:20.969Z,79.34
2019-05-09T10:02:51.452Z,79.78
2019-05-09T10:05:21.553Z,79.96
2019-05-09T10:07:51.637Z,79.65
2019-05-09T10:10:33.161Z,79.71
2019-05-09T10:13:04.186Z,78.99
2019-05-09T10:15:39.152Z,79.60
2019-05-09T10:18:18.256Z,79.58
2019-05-09T10:20:58.457Z,79.46
2019-05-09T10:23:28.088Z,80.09
2019-05-09T10:25:58.349Z,79.35
2019-05-09T10:28:30.044Z,79.64
2019-05-09T10:31:00.593Z,79.34
2019-05-09T10:33:30.947Z,80.16
2019-05-09T10:36:04.528Z,79.97
2019-05-09T10:38:32.786Z,79.50
2019-05-09T10:41:02.898Z,79.35
2019-05-09T10:43:49.688Z,79.56
2019-05-09T10:46:48.322Z,79.56
2019-05-09T10:49:04.581Z,79.35
2019-05-09T10:51:34.675Z,79.88
2019-05-09T10:54:04.826Z,79.76
2019-05-09T10:56:34.930Z,80.57
2019-05-09T10:59:04.979Z,79.47
2019-05-09T11:01:35.074Z,80.36
2019-05-09T11:04:07.915Z,79.39
2019-05-09T11:06:38.282Z,79.76
2019-05-09T11:09:10.180Z,79.47
2019-05-09T11:11:40.444Z,80.33
2019-05-09T11:14:10.547Z,80.12
2019-05-09T11:16:46.158Z,79.02
2019-05-09T11:19:12.447Z,79.23
2019-05-09T11:21:42.490Z,80.20
2019-05-09T11:24:12.596Z,79.36
2019-05-09T11:26:42.617Z,78.81
2019-05-09T11:29:12.702Z,80.03
2019-05-09T11:31:42.778Z,79.78
2019-05-09T11:34:13.075Z,79.37
2019-05-09T11:36:43.277Z,79.25
2019-05-09T11:39:13.353Z,79.86
2019-05-09T11:41:43.451Z,79.79
2019-05-09T11:44:13.523Z,79.93
2019-05-09T11:46:43.602Z,79.50
2019-05-09T11:49:13.701Z,79.97
2019-05-09T11:51:43.787Z,78.57
2019-05-09T11:54:16.587Z,79.48
2019-05-09T11:56:48.012Z,80.12
2019-05-09T11:59:18.866Z,79.58
2019-05-09T12:01:49.296Z,80.60
2019-05-09T12:04:19.781Z,80.70
2019-05-09T12:06:49.868Z,80.93
2019-05-09T12:09:19.972Z,80.71
2019-05-09T12:11:50.023Z,80.15
2019-05-09T12:14:20.133Z,79.73
2019-05-09T12:16:50.216Z,80.33
2019-05-09T12:19:20.254Z,81.12
2019-05-09T12:21:50.347Z,80.23
2019-05-09T12:24:20.404Z,79.85
2019-05-09T12:26:50.505Z,78.61
2019-05-09T12:29:20.568Z,79.37
2019-05-09T12:31:50.664Z,79.32
2019-05-09T12:34:20.783Z,80.01
2019-05-09T12:36:50.898Z,78.44
2019-05-09T12:39:20.937Z,80.05
2019-05-09T12:41:51.069Z,80.04
2019-05-09T12:44:24.774Z,80.10
2019-05-09T12:46:52.925Z,79.15
2019-05-09T12:49:22.984Z,79.80
2019-05-09T12:51:53.103Z,80.22
2019-05-09T12:54:23.147Z,79.64
2019-05-09T12:56:53.254Z,79.16
2019-05-09T12:59:23.295Z,78.38
2019-05-09T13:01:53.389Z,78.93
2019-05-09T13:04:23.445Z,79.07
2019-05-09T13:06:53.558Z,77.95
2019-05-09T13:09:23.613Z,77.88
2019-05-09T13:11:53.717Z,79.18
2019-05-09T13:14:23.770Z,78.76
2019-05-09T13:16:57.421Z,77.50
2019-05-09T13:19:31.741Z,77.50
2019-05-09T13:22:01.858Z,77.00
2019-05-09T13:24:31.910Z,77.65
2019-05-09T13:27:02.028Z,76.14
2019-05-09T13:29:32.075Z,75.98
2019-05-09T13:32:02.180Z,76.96
2019-05-09T13:34:32.218Z,77.02
2019-05-09T13:37:02.319Z,76.89
2019-05-09T13:39:32.403Z,77.54
2019-05-09T13:42:02.540Z,77.78
2019-05-09T13:44:32.815Z,78.56
2019-05-09T13:47:02.988Z,78.35
2019-05-09T13:49:33.093Z,77.74
2019-05-09T13:52:05.044Z,78.14
2019-05-09T13:54:34.975Z,77.75
2019-05-09T13:57:05.224Z,78.30
2019-05-09T13:59:37.315Z,76.97
2019-05-09T14:02:07.174Z,77.71
2019-05-09T14:04:39.555Z,78.03
2019-05-09T14:07:09.536Z,77.69
2019-05-09T14:09:39.721Z,77.80
2019-05-09T14:12:10.570Z,78.37
2019-05-09T14:14:40.749Z,76.76
2019-05-09T14:17:13.777Z,76.66
2019-05-09T14:19:46.720Z,76.53
2019-05-09T14:22:14.554Z,75.90
2019-05-09T14:24:44.585Z,76.56
2019-05-09T14:27:14.701Z,77.11
2019-05-09T14:29:44.739Z,76.93
2019-05-09T14:32:14.846Z,77.22
2019-05-09T14:34:44.885Z,77.39
2019-05-09T14:37:14.983Z,77.66
2019-05-09T14:39:55.826Z,77.71
2019-05-09T14:42:18.901Z,76.55
2019-05-09T14:44:48.590Z,77.85
2019-05-09T14:47:18.889Z,77.07
2019-05-09T14:49:50.563Z,78.04
2019-05-09T14:52:23.539Z,77.84
2019-05-09T14:54:53.595Z,77.48
2019-05-09T14:57:28.652Z,77.33
2019-05-09T14:59:58.714Z,77.52
2019-05-09T15:02:28.818Z,76.70
2019-05-09T15:04:59.409Z,76.71
2019-05-09T15:07:29.654Z,76.17
2019-05-09T15:10:00.025Z,77.44
2019-05-09T15:12:30.283Z,76.53
2019-05-09T15:15:00.493Z,77.08
2019-05-09T15:17:30.718Z,76.38
2019-05-09T15:23:08.869Z,77.68
2019-05-09T15:25:48.089Z,76.69
2019-05-09T15:34:18.391Z,76.28
2019-05-09T15:36:48.426Z,76.73
2019-05-09T15:39:18.742Z,76.73
2019-05-09T15:41:48.829Z,76.50
2019-05-09T15:44:18.946Z,77.65
2019-05-09T15:46:53.399Z,76.82
2019-05-09T15:49:23.599Z,76.92
2019-05-09T15:51:53.908Z,75.98
2019-05-09T15:54:24.050Z,75.71
2019-05-09T15:56:54.143Z,76.18
2019-05-09T15:59:38.922Z,76.32
2019-05-09T16:02:04.992Z,76.07
2019-05-09T16:04:35.218Z,76.57
2019-05-09T16:07:05.297Z,77.31
2019-05-09T16:09:37.774Z,76.68
2019-05-09T16:12:07.817Z,76.42
2019-05-09T16:14:38.203Z,77.33
2019-05-09T16:17:08.474Z,76.52
2019-05-09T16:19:38.594Z,76.88
2019-05-09T16:22:08.681Z,77.62
2019-05-09T16:24:38.858Z,77.30
2019-05-09T16:27:08.962Z,76.82
2019-05-09T16:29:39.069Z,77.50
2019-05-09T16:32:09.204Z,77.84
2019-05-09T16:34:39.310Z,77.58
2019-05-09T16:37:09.390Z,77.62
2019-05-09T16:39:39.483Z,77.89
2019-05-09T16:42:09.589Z,77.82
2019-05-09T16:44:41.721Z,78.20
2019-05-09T16:47:11.496Z,77.57
2019-05-09T16:49:41.639Z,77.45
2019-05-09T16:52:11.716Z,77.58
2019-05-09T16:54:43.397Z,78.21
2019-05-09T16:57:13.492Z,78.40
2019-05-09T16:59:43.608Z,78.75
2019-05-09T17:02:21.375Z,78.56
2019-05-09T17:04:45.574Z,78.71
2019-05-09T17:07:17.926Z,79.24
2019-05-09T17:09:48.464Z,79.16
2019-05-09T17:12:18.787Z,79.50
2019-05-09T17:14:51.011Z,79.04
2019-05-09T17:17:23.626Z,79.34
2019-05-09T17:19:57.291Z,79.31
2019-05-09T17:22:47.407Z,79.28
2019-05-09T17:25:18.861Z,80.08
2019-05-09T17:27:49.761Z,80.45
2019-05-09T17:30:19.860Z,80.41
2019-05-09T17:32:54.194Z,80.35
2019-05-09T17:35:27.893Z,80.42
2019-05-09T17:37:58.617Z,80.41
2019-05-09T17:40:29.279Z,80.50
2019-05-09T17:43:01.936Z,80.34
2019-05-09T17:45:33.617Z,80.67
2019-05-09T17:48:04.313Z,80.69
2019-05-09T17:50:38.087Z,80.59
2019-05-09T17:53:12.354Z,80.45
2019-05-09T17:55:44.347Z,80.48
2019-05-09T17:58:29.101Z,80.47
2019-05-09T18:00:50.177Z,80.64
2019-05-09T18:03:21.165Z,80.74
2019-05-09T18:05:57.482Z,81.07
2019-05-09T18:08:28.339Z,80.72
2019-05-09T18:10:58.985Z,81.06
2019-05-09T18:13:31.797Z,80.79
2019-05-09T18:16:03.456Z,81.27
2019-05-09T18:18:34.863Z,81.11
2019-05-09T18:21:05.642Z,81.39
2019-05-09T18:26:59.826Z,81.71
2019-05-09T18:29:31.071Z,81.48
2019-05-09T18:34:53.722Z,81.71
2019-05-09T18:37:24.851Z,81.67
2019-05-09T18:40:01.737Z,81.85
2019-05-09T18:42:31.407Z,81.98
2019-05-09T18:45:17.550Z,82.05
2019-05-09T18:54:53.008Z,82.26
2019-05-09T18:57:24.992Z,82.48
2019-05-09T18:59:55.516Z,82.30
2019-05-09T19:02:26.880Z,82.34
2019-05-09T19:04:58.264Z,82.36
2019-05-09T19:07:30.397Z,82.48
2019-05-09T19:10:01.954Z,82.36
2019-05-09T19:12:32.597Z,82.80
2019-05-09T19:15:04.818Z,82.78
2019-05-09T19:17:45.185Z,82.86
2019-05-09T19:20:23.299Z,82.85
2019-05-09T19:22:53.702Z,83.09
2019-05-09T19:25:24.005Z,83.00
2019-05-09T19:27:54.089Z,82.91
2019-05-09T19:30:35.402Z,82.62
2019-05-09T19:33:02.806Z,82.60
2019-05-09T19:35:31.637Z,82.71
2019-05-09T19:38:01.990Z,82.78
2019-05-09T19:40:32.324Z,82.63
2019-05-09T19:43:02.704Z,82.73
2019-05-09T19:49:38.321Z,83.14
2019-05-09T20:02:35.336Z,83.91
2019-05-09T20:05:15.301Z,83.62
2019-05-09T20:19:13.570Z,83.07
2019-05-09T20:33:45.305Z,84.01
2019-05-09T20:39:44.996Z,83.60
2019-05-09T20:48:39.109Z,83.39
2019-05-09T20:54:30.329Z,83.52
2019-05-09T21:03:08.203Z,83.57
2019-05-09T21:05:38.527Z,83.49
2019-05-09T21:08:08.815Z,83.38
2019-05-09T21:10:39.096Z,83.47
2019-05-09T21:13:09.382Z,83.39
2019-05-09T21:15:39.763Z,83.34
2019-05-09T21:18:10.327Z,83.44
2019-05-09T21:20:40.820Z,82.90
2019-05-09T21:23:23.972Z,83.07
2019-05-09T21:25:43.076Z,82.83
2019-05-09T21:28:13.374Z,83.03
2019-05-09T21:30:44.327Z,83.08
2019-05-09T21:33:14.638Z,83.04
2019-05-09T21:35:44.714Z,83.46
2019-05-09T21:38:14.833Z,83.60
2019-05-09T21:40:45.219Z,83.63
2019-05-09T21:43:15.329Z,83.54
2019-05-09T21:45:45.415Z,83.46
2019-05-09T21:48:15.529Z,83.60
2019-05-09T21:50:45.607Z,83.41
2019-05-09T21:53:15.714Z,83.52
2019-05-09T21:55:45.841Z,83.67
2019-05-09T21:58:16.001Z,83.63
2019-05-09T22:00:48.992Z,83.64
2019-05-09T22:03:19.397Z,83.63
2019-05-09T22:05:49.571Z,83.77
2019-05-09T22:08:19.683Z,83.37
2019-05-09T22:10:49.754Z,83.81
2019-05-09T22:13:19.851Z,83.89
2019-05-09T22:15:50.076Z,83.41
2019-05-09T22:18:20.202Z,83.54
2019-05-09T22:20:50.257Z,83.65
2019-05-09T22:23:20.361Z,84.30
2019-05-09T22:25:50.419Z,84.25
2019-05-09T22:28:20.536Z,84.35
2019-05-09T22:30:50.604Z,84.11
2019-05-09T22:33:20.805Z,83.72
2019-05-09T22:35:50.878Z,83.37
2019-05-09T22:38:21.007Z,83.38
2019-05-09T22:40:51.090Z,83.55
2019-05-09T22:43:21.183Z,83.49
2019-05-09T22:45:51.570Z,83.12
2019-05-09T22:48:21.669Z,83.18
2019-05-09T22:50:51.712Z,83.16
2019-05-09T22:53:21.818Z,83.09
2019-05-09T22:55:51.850Z,83.94
2019-05-09T22:58:22.054Z,83.43
2019-05-09T23:00:52.090Z,83.84
2019-05-09T23:03:22.184Z,83.91
2019-05-09T23:05:52.261Z,83.12
2019-05-09T23:08:22.375Z,83.34
2019-05-09T23:10:53.583Z,83.29
2019-05-09T23:13:23.926Z,83.50
2019-05-09T23:15:54.007Z,83.82
2019-05-09T23:18:24.101Z,83.92
2019-05-09T23:20:55.275Z,83.26
2019-05-09T23:23:32.781Z,83.85
2019-05-09T23:26:02.843Z,83.51
2019-05-09T23:28:32.931Z,83.32
2019-05-09T23:31:04.568Z,82.67
2019-05-09T23:33:36.246Z,82.72
2019-05-09T23:36:06.320Z,82.90
2019-05-09T23:38:38.002Z,82.90
2019-05-09T23:41:08.249Z,82.48
2019-05-09T23:43:38.357Z,82.96
2019-05-09T23:46:08.433Z,82.91
2019-05-09T23:48:38.461Z,83.54
2019-05-09T23:51:08.546Z,83.82
2019-05-09T23:53:38.948Z,83.46
2019-05-09T23:56:26.760Z,82.89
2019-05-09T23:59:14.624Z,83.00
